createdAt,value
2022-12-14T00:01:40.176Z,8.70
2022-12-14T00:04:09.177Z,8.70
2022-12-14T00:06:37.104Z,8.70
2022-12-14T00:09:05.612Z,8.70
2022-12-14T00:11:33.514Z,8.70
2022-12-14T00:14:01.896Z,8.70
2022-12-14T00:16:30.797Z,8.70
2022-12-14T00:18:59.884Z,8.60
2022-12-14T00:21:29.065Z,8.70
2022-12-14T00:23:56.819Z,8.70
2022-12-14T00:26:26.128Z,8.60
2022-12-14T00:28:54.838Z,8.60
2022-12-14T00:31:22.899Z,8.60
2022-12-14T00:33:51.248Z,8.60
2022-12-14T00:36:19.558Z,8.60
2022-12-14T00:38:49.066Z,8.60
2022-12-14T00:41:17.553Z,8.60
2022-12-14T00:43:45.488Z,8.60
2022-12-14T00:46:18.004Z,8.60
2022-12-14T00:48:46.323Z,8.60
2022-12-14T00:51:20.743Z,8.60
2022-12-14T00:53:50.215Z,8.60
2022-12-14T00:56:18.136Z,8.60
2022-12-14T00:58:50.742Z,8.60
2022-12-14T01:01:18.819Z,8.60
2022-12-14T01:03:46.752Z,8.60
2022-12-14T01:06:15.994Z,8.60
2022-12-14T01:08:46.103Z,8.50
2022-12-14T01:11:16.042Z,8.50
2022-12-14T01:13:43.865Z,8.50
2022-12-14T01:16:12.970Z,8.50
2022-12-14T01:18:41.995Z,8.50
2022-12-14T01:21:11.562Z,8.50
2022-12-14T01:23:39.937Z,8.50
2022-12-14T01:26:09.882Z,8.50
2022-12-14T01:28:39.419Z,8.50
2022-12-14T01:31:08.544Z,8.50
2022-12-14T01:33:36.304Z,8.50
2022-12-14T01:36:08.127Z,8.50
2022-12-14T01:38:36.000Z,8.50
2022-12-14T01:41:03.768Z,8.50
2022-12-14T01:56:49.065Z,8.40
2022-12-14T01:59:18.833Z,8.40
2022-12-14T02:01:46.712Z,8.30
2022-12-14T02:04:16.499Z,8.30
2022-12-14T02:06:44.288Z,8.30
2022-12-14T02:09:13.581Z,8.30
2022-12-14T02:11:44.472Z,8.30
2022-12-14T02:14:14.187Z,8.30
2022-12-14T02:16:41.947Z,8.30
2022-12-14T02:19:10.241Z,8.30
2022-12-14T02:21:48.311Z,8.30
2022-12-14T02:24:25.265Z,8.20
2022-12-14T02:27:11.998Z,8.30
2022-12-14T02:29:53.860Z,8.20
2022-12-14T02:32:59.770Z,8.20
2022-12-14T02:35:34.487Z,8.20
2022-12-14T02:38:06.767Z,8.20
2022-12-14T02:40:36.868Z,8.20
2022-12-14T02:43:09.582Z,8.20
2022-12-14T02:45:42.267Z,8.20
2022-12-14T02:48:11.336Z,8.20
2022-12-14T02:50:42.208Z,8.10
2022-12-14T02:53:13.169Z,8.10
2022-12-14T02:55:43.454Z,8.10
2022-12-14T02:58:13.485Z,8.10
2022-12-14T03:00:42.894Z,8.10
2022-12-14T03:03:11.134Z,8.10
2022-12-14T03:05:39.057Z,8.10
2022-12-14T03:08:07.684Z,8.00
2022-12-14T03:10:38.382Z,8.00
2022-12-14T03:13:11.304Z,8.10
2022-12-14T03:15:39.845Z,8.00
2022-12-14T03:18:09.641Z,8.00
2022-12-14T03:20:38.695Z,8.00
2022-12-14T03:23:08.721Z,8.00
2022-12-14T03:25:38.769Z,7.90
2022-12-14T03:28:07.539Z,8.00
2022-12-14T03:30:58.841Z,8.00
2022-12-14T03:33:26.014Z,7.90
2022-12-14T03:35:57.033Z,7.90
2022-12-14T03:38:28.264Z,7.90
2022-12-14T03:40:58.123Z,7.90
2022-12-14T03:43:29.000Z,7.90
2022-12-14T03:45:58.885Z,7.80
2022-12-14T03:48:31.453Z,7.80
2022-12-14T03:51:04.690Z,7.90
2022-12-14T03:53:35.279Z,7.80
2022-12-14T03:56:06.236Z,7.80
2022-12-14T03:58:37.464Z,7.80
2022-12-14T04:01:08.347Z,7.80
2022-12-14T04:03:46.835Z,7.80
2022-12-14T04:06:19.042Z,7.80
2022-12-14T04:08:49.229Z,7.80
2022-12-14T04:11:34.455Z,7.80
2022-12-14T04:14:22.011Z,7.80
2022-12-14T04:17:08.280Z,7.70
2022-12-14T04:19:39.791Z,7.70
2022-12-14T04:22:09.177Z,7.60
2022-12-14T04:24:56.971Z,7.60
2022-12-14T04:27:29.742Z,7.60
2022-12-14T04:29:56.990Z,7.60
2022-12-14T04:32:26.437Z,7.60
2022-12-14T04:34:58.350Z,7.60
2022-12-14T04:37:26.136Z,7.60
2022-12-14T04:39:55.375Z,7.60
2022-12-14T04:42:24.861Z,7.60
2022-12-14T04:44:54.236Z,7.60
2022-12-14T04:47:21.988Z,7.50
2022-12-14T04:49:52.003Z,7.50
2022-12-14T04:52:22.800Z,7.50
2022-12-14T04:54:51.840Z,7.50
2022-12-14T04:57:22.776Z,7.50
2022-12-14T04:59:50.541Z,7.50
2022-12-14T05:02:21.769Z,7.40
2022-12-14T05:04:55.878Z,7.40
2022-12-14T05:07:34.057Z,7.40
2022-12-14T05:10:04.404Z,7.40
2022-12-14T05:12:37.285Z,7.40
2022-12-14T05:15:06.259Z,7.40
2022-12-14T05:17:36.582Z,7.40
2022-12-14T05:20:04.630Z,7.40
2022-12-14T05:22:34.039Z,7.40
2022-12-14T05:25:01.820Z,7.40
2022-12-14T05:27:29.755Z,7.30
2022-12-14T05:29:58.216Z,7.30
2022-12-14T05:32:26.343Z,7.30
2022-12-14T05:34:54.438Z,7.30
2022-12-14T05:37:22.762Z,7.30
2022-12-14T05:39:52.087Z,7.30
2022-12-14T05:42:19.944Z,7.30
2022-12-14T05:44:48.195Z,7.30
2022-12-14T05:47:16.064Z,7.30
2022-12-14T05:49:44.375Z,7.30
2022-12-14T05:52:12.295Z,7.30
2022-12-14T05:54:40.964Z,7.30
2022-12-14T05:57:10.502Z,7.30
2022-12-14T05:59:38.978Z,7.30
2022-12-14T06:02:07.942Z,7.30
2022-12-14T06:04:36.038Z,7.30
2022-12-14T06:07:03.909Z,7.30
2022-12-14T06:09:32.323Z,7.30
2022-12-14T06:12:00.100Z,7.30
2022-12-14T06:14:29.659Z,7.30
2022-12-14T06:16:57.328Z,7.30
2022-12-14T06:19:25.011Z,7.20
2022-12-14T06:21:52.771Z,7.20
2022-12-14T06:24:21.451Z,7.20
2022-12-14T06:26:49.243Z,7.20
2022-12-14T06:29:18.745Z,7.20
2022-12-14T06:31:49.509Z,7.20
2022-12-14T06:34:17.383Z,7.20
2022-12-14T06:36:46.779Z,7.20
2022-12-14T06:39:15.574Z,7.20
2022-12-14T06:41:43.272Z,7.10
2022-12-14T06:44:12.500Z,7.10
2022-12-14T06:46:40.653Z,7.10
2022-12-14T06:49:13.281Z,7.10
2022-12-14T06:51:41.202Z,7.10
2022-12-14T06:54:10.733Z,7.10
2022-12-14T06:56:38.498Z,7.10
2022-12-14T06:59:06.601Z,7.10
2022-12-14T07:01:34.348Z,7.10
2022-12-14T07:04:02.085Z,7.10
2022-12-14T07:06:33.813Z,7.10
2022-12-14T07:09:01.967Z,7.10
2022-12-14T07:11:30.210Z,7.10
2022-12-14T07:14:00.627Z,7.10
2022-12-14T07:16:29.682Z,7.10
2022-12-14T07:18:57.675Z,7.10
2022-12-14T07:21:25.983Z,7.00
2022-12-14T07:23:55.023Z,7.00
2022-12-14T07:26:24.007Z,7.00
2022-12-14T07:28:51.758Z,7.00
2022-12-14T07:31:21.176Z,7.00
2022-12-14T07:33:49.096Z,7.00
2022-12-14T07:36:18.136Z,7.00
2022-12-14T07:38:50.112Z,7.00
2022-12-14T07:41:22.635Z,7.00
2022-12-14T07:43:51.430Z,7.00
2022-12-14T07:46:21.127Z,7.00
2022-12-14T07:48:49.648Z,7.00
2022-12-14T07:51:18.581Z,7.00
2022-12-14T07:53:46.358Z,7.00
2022-12-14T07:56:15.298Z,7.00
2022-12-14T07:58:44.354Z,7.00
2022-12-14T08:01:13.599Z,7.00
2022-12-14T08:03:41.830Z,7.00
2022-12-14T08:06:09.921Z,7.00
2022-12-14T08:08:37.715Z,7.00
2022-12-14T08:11:06.412Z,7.00
2022-12-14T08:13:34.294Z,7.00
2022-12-14T08:16:06.863Z,7.00
2022-12-14T08:18:34.770Z,7.00
2022-12-14T08:21:02.589Z,7.00
2022-12-14T08:23:30.705Z,7.00
2022-12-14T08:26:00.037Z,7.00
2022-12-14T08:28:28.300Z,7.10
2022-12-14T08:30:56.052Z,7.20
2022-12-14T08:33:25.073Z,7.10
2022-12-14T08:35:53.332Z,7.20
2022-12-14T08:38:21.007Z,7.20
2022-12-14T08:40:48.955Z,7.20
2022-12-14T08:43:20.321Z,7.30
2022-12-14T08:45:51.206Z,7.40
2022-12-14T08:48:19.058Z,7.50
2022-12-14T08:50:49.981Z,7.60
2022-12-14T08:53:18.496Z,7.70
2022-12-14T08:55:46.295Z,7.90
2022-12-14T08:58:14.678Z,8.10
2022-12-14T09:00:43.397Z,8.30
2022-12-14T09:03:12.247Z,8.40
2022-12-14T09:05:40.147Z,8.50
2022-12-14T09:08:09.742Z,8.50
2022-12-14T09:10:37.547Z,8.60
2022-12-14T09:13:05.838Z,8.60
2022-12-14T09:15:33.605Z,8.60
2022-12-14T09:18:01.352Z,8.70
2022-12-14T09:20:29.248Z,8.70
2022-12-14T09:22:57.626Z,8.80
2022-12-14T09:25:26.707Z,8.90
2022-12-14T09:27:55.074Z,8.90
2022-12-14T09:30:26.570Z,8.90
2022-12-14T09:32:55.486Z,8.90
2022-12-14T09:35:23.442Z,8.90
2022-12-14T09:37:51.900Z,8.90
2022-12-14T09:40:19.980Z,8.90
2022-12-14T09:42:55.178Z,8.90
2022-12-14T09:45:25.169Z,9.00
2022-12-14T09:47:56.433Z,9.00
2022-12-14T09:50:24.124Z,9.00
2022-12-14T09:52:52.583Z,9.10
2022-12-14T09:55:22.791Z,9.20
2022-12-14T09:57:54.440Z,9.40
2022-12-14T10:00:23.138Z,9.60
2022-12-14T10:03:06.130Z,9.90
2022-12-14T10:05:58.863Z,10.20
2022-12-14T10:08:27.674Z,10.50
2022-12-14T10:11:00.719Z,10.80
2022-12-14T10:13:35.090Z,11.00
2022-12-14T10:16:08.836Z,11.30
2022-12-14T10:19:02.643Z,11.60
2022-12-14T10:21:40.522Z,11.80
2022-12-14T10:24:08.337Z,12.10
2022-12-14T10:26:39.826Z,12.30
2022-12-14T10:29:11.775Z,12.60
2022-12-14T10:31:42.141Z,12.80
2022-12-14T10:34:19.132Z,13.00
2022-12-14T10:36:53.926Z,13.30
2022-12-14T10:39:31.328Z,13.50
2022-12-14T10:42:01.946Z,13.80
2022-12-14T10:44:35.365Z,14.00
2022-12-14T10:47:06.211Z,14.30
2022-12-14T10:49:37.257Z,14.60
2022-12-14T10:52:07.217Z,14.80
2022-12-14T10:54:37.257Z,15.00
2022-12-14T10:57:05.472Z,15.30
2022-12-14T10:59:42.422Z,15.50
2022-12-14T11:02:17.564Z,15.80
2022-12-14T11:04:48.732Z,16.00
2022-12-14T11:07:17.445Z,16.30
2022-12-14T11:09:45.731Z,16.50
2022-12-14T11:12:18.963Z,16.80
2022-12-14T11:14:56.750Z,17.00
2022-12-14T11:17:35.362Z,17.30
2022-12-14T11:20:22.682Z,17.50
2022-12-14T11:22:51.783Z,17.70
2022-12-14T11:25:35.354Z,17.90
2022-12-14T11:28:04.905Z,18.20
2022-12-14T11:30:34.606Z,18.30
2022-12-14T11:33:02.340Z,18.60
2022-12-14T11:35:30.416Z,18.70
2022-12-14T11:37:59.652Z,18.90
2022-12-14T11:40:28.321Z,19.10
2022-12-14T11:42:59.219Z,19.30
2022-12-14T11:45:31.752Z,19.50
2022-12-14T11:48:18.439Z,19.60
2022-12-14T11:50:47.368Z,19.80
2022-12-14T11:53:15.934Z,20.00
2022-12-14T11:55:45.572Z,20.20
2022-12-14T11:58:15.677Z,20.40
2022-12-14T12:00:47.429Z,20.50
2022-12-14T12:03:19.920Z,20.60
2022-12-14T12:05:48.018Z,20.80
2022-12-14T12:08:24.479Z,20.90
2022-12-14T12:10:53.684Z,21.10
2022-12-14T12:13:24.773Z,21.30
2022-12-14T12:15:55.264Z,21.40
2022-12-14T12:18:31.753Z,21.50
2022-12-14T12:21:02.429Z,21.60
2022-12-14T12:23:33.961Z,21.80
2022-12-14T12:26:01.927Z,21.80
2022-12-14T12:28:32.579Z,21.90
2022-12-14T12:31:06.015Z,22.10
2022-12-14T12:33:45.048Z,22.20
2022-12-14T12:36:13.044Z,22.30
2022-12-14T12:38:49.897Z,22.40
2022-12-14T12:41:34.122Z,22.50
2022-12-14T12:44:06.831Z,22.60
2022-12-14T12:46:53.561Z,22.60
2022-12-14T12:49:26.051Z,22.70
2022-12-14T12:51:55.685Z,22.80
2022-12-14T12:54:28.041Z,22.80
2022-12-14T12:56:57.668Z,22.90
2022-12-14T12:59:28.050Z,22.90
2022-12-14T13:01:57.827Z,23.00
2022-12-14T13:04:33.980Z,23.10
2022-12-14T13:07:04.043Z,23.10
2022-12-14T13:09:39.157Z,23.20
2022-12-14T13:12:07.987Z,23.20
2022-12-14T13:14:37.478Z,23.20
2022-12-14T13:17:06.829Z,23.30
2022-12-14T13:19:50.434Z,23.20
2022-12-14T13:22:23.758Z,23.20
2022-12-14T13:24:56.998Z,23.10
2022-12-14T13:27:41.048Z,23.00
2022-12-14T13:30:17.456Z,22.80
2022-12-14T13:32:52.426Z,22.50
2022-12-14T13:35:32.167Z,22.30
2022-12-14T13:38:14.243Z,22.00
2022-12-14T13:40:49.702Z,21.80
2022-12-14T13:43:43.786Z,21.50
2022-12-14T13:46:14.831Z,21.20
2022-12-14T13:48:44.689Z,20.90
2022-12-14T13:51:25.184Z,20.70
2022-12-14T13:53:57.489Z,20.50
2022-12-14T13:56:33.004Z,20.30
2022-12-14T13:59:02.384Z,20.10
2022-12-14T14:01:52.927Z,19.90
2022-12-14T14:04:22.364Z,19.80
2022-12-14T14:06:51.612Z,19.60
2022-12-14T14:09:48.899Z,19.40
2022-12-14T14:12:37.590Z,19.30
2022-12-14T14:15:22.656Z,19.20
2022-12-14T14:17:53.619Z,19.00
2022-12-14T14:20:39.281Z,18.80
2022-12-14T14:23:34.363Z,18.60
2022-12-14T14:26:16.955Z,18.30
2022-12-14T14:28:49.411Z,18.10
2022-12-14T14:31:17.280Z,17.90
2022-12-14T14:33:48.307Z,17.70
2022-12-14T14:36:19.571Z,17.50
2022-12-14T14:38:48.933Z,17.40
2022-12-14T14:41:22.790Z,17.30
2022-12-14T14:43:52.230Z,17.10
2022-12-14T14:46:23.409Z,17.00
2022-12-14T14:48:52.713Z,16.90
2022-12-14T14:51:21.746Z,16.70
2022-12-14T14:53:53.253Z,16.60
2022-12-14T14:56:46.010Z,16.50
2022-12-14T14:59:41.053Z,16.40
2022-12-14T15:02:31.571Z,16.20
2022-12-14T15:05:17.415Z,16.10
2022-12-14T15:07:47.838Z,15.90
2022-12-14T15:10:22.884Z,15.80
2022-12-14T15:12:52.255Z,15.70
2022-12-14T15:15:22.005Z,15.60
2022-12-14T15:17:49.852Z,15.40
2022-12-14T15:20:23.666Z,15.30
2022-12-14T15:22:51.735Z,15.20
2022-12-14T15:25:24.050Z,15.10
2022-12-14T15:27:52.679Z,15.00
2022-12-14T15:30:23.707Z,15.00
2022-12-14T15:32:54.386Z,14.90
2022-12-14T15:35:24.885Z,14.80
2022-12-14T15:37:58.177Z,14.70
2022-12-14T15:40:30.243Z,14.60
2022-12-14T15:42:59.021Z,14.50
2022-12-14T15:45:28.202Z,14.50
2022-12-14T15:47:56.123Z,14.40
2022-12-14T15:50:25.560Z,14.30
2022-12-14T15:52:55.455Z,14.30
2022-12-14T15:55:43.346Z,14.20
2022-12-14T15:58:12.470Z,14.10
2022-12-14T16:00:43.187Z,14.00
2022-12-14T16:03:18.554Z,14.00
2022-12-14T16:05:46.902Z,13.90
2022-12-14T16:08:15.255Z,13.80
2022-12-14T16:10:44.893Z,13.80
2022-12-14T16:13:16.631Z,13.70
2022-12-14T16:15:46.214Z,13.70
2022-12-14T16:18:17.826Z,13.60
2022-12-14T16:20:46.598Z,13.60
2022-12-14T16:23:27.743Z,13.50
2022-12-14T16:25:59.061Z,13.50
2022-12-14T16:28:29.235Z,13.40
2022-12-14T16:30:59.905Z,13.30
2022-12-14T16:33:29.646Z,13.30
2022-12-14T16:36:08.964Z,13.20
2022-12-14T16:38:41.325Z,13.10
2022-12-14T16:41:11.370Z,13.10
2022-12-14T16:43:39.802Z,13.10
2022-12-14T16:46:16.130Z,13.00
2022-12-14T16:48:46.142Z,13.00
2022-12-14T16:51:38.289Z,12.90
2022-12-14T16:54:23.169Z,12.90
2022-12-14T16:56:54.873Z,12.90
2022-12-14T16:59:24.408Z,12.80
2022-12-14T17:01:52.580Z,12.80
2022-12-14T17:04:21.002Z,12.70
2022-12-14T17:06:50.709Z,12.70
2022-12-14T17:09:20.596Z,12.60
2022-12-14T17:11:52.617Z,12.60
2022-12-14T17:14:20.473Z,12.60
2022-12-14T17:16:49.881Z,12.60
2022-12-14T17:19:21.670Z,12.50
2022-12-14T17:21:51.300Z,12.50
2022-12-14T17:24:20.725Z,12.40
2022-12-14T17:26:49.254Z,12.40
2022-12-14T17:29:22.901Z,12.30
2022-12-14T17:31:51.254Z,12.30
2022-12-14T17:34:19.147Z,12.20
2022-12-14T17:36:46.956Z,12.30
2022-12-14T17:39:14.703Z,12.20
2022-12-14T17:41:45.493Z,12.10
2022-12-14T17:44:15.332Z,12.10
2022-12-14T17:46:45.309Z,12.10
2022-12-14T17:49:14.445Z,12.10
2022-12-14T17:51:43.663Z,12.10
2022-12-14T17:54:15.851Z,12.00
2022-12-14T17:56:44.537Z,12.00
2022-12-14T17:59:12.363Z,12.00
2022-12-14T18:01:41.049Z,11.90
2022-12-14T18:04:10.904Z,11.90
2022-12-14T18:06:39.385Z,11.90
2022-12-14T18:09:08.015Z,11.90
2022-12-14T18:11:39.243Z,11.80
2022-12-14T18:14:17.092Z,11.80
2022-12-14T18:16:45.303Z,11.80
2022-12-14T18:19:16.848Z,11.70
2022-12-14T18:21:44.752Z,11.70
2022-12-14T18:24:18.178Z,11.70
2022-12-14T18:26:49.810Z,11.60
2022-12-14T18:29:17.730Z,11.60
2022-12-14T18:31:46.035Z,11.60
2022-12-14T18:34:18.823Z,11.50
2022-12-14T18:36:46.749Z,11.50
2022-12-14T18:39:14.507Z,11.50
2022-12-14T18:41:42.215Z,11.50
2022-12-14T18:44:11.284Z,11.40
2022-12-14T18:46:40.011Z,11.40
2022-12-14T18:49:07.820Z,11.30
2022-12-14T18:51:36.939Z,11.30
2022-12-14T18:54:05.313Z,11.30
2022-12-14T18:56:33.136Z,11.30
2022-12-14T18:59:01.358Z,11.20
2022-12-14T19:01:29.421Z,11.20
2022-12-14T19:03:57.853Z,11.20
2022-12-14T19:09:16.500Z,11.20
2022-12-14T19:12:00.780Z,11.10
2022-12-14T19:14:28.816Z,11.10
2022-12-14T19:16:57.458Z,11.00
2022-12-14T19:19:29.386Z,11.00
2022-12-14T19:22:02.794Z,11.00
2022-12-14T19:24:31.989Z,11.00
2022-12-14T19:27:00.475Z,11.00
2022-12-14T19:29:31.645Z,10.90
2022-12-14T19:32:05.553Z,10.90
2022-12-14T19:34:37.141Z,10.90
2022-12-14T19:37:09.138Z,10.90
2022-12-14T19:39:38.656Z,10.90
2022-12-14T19:42:07.781Z,10.90
2022-12-14T19:44:38.430Z,10.80
2022-12-14T19:47:09.386Z,10.70
2022-12-14T19:49:37.392Z,10.70
2022-12-14T19:52:07.485Z,10.70
2022-12-14T19:54:40.933Z,10.60
2022-12-14T19:57:10.762Z,10.60
2022-12-14T19:59:38.906Z,10.50
2022-12-14T20:02:07.250Z,10.50
2022-12-14T20:04:36.144Z,10.50
2022-12-14T20:07:06.467Z,10.40
2022-12-14T20:09:34.746Z,10.40
2022-12-14T20:12:03.597Z,10.30
2022-12-14T20:14:33.277Z,10.30
2022-12-14T20:17:01.770Z,10.30
2022-12-14T20:19:43.814Z,10.20
2022-12-14T20:22:23.458Z,10.20
2022-12-14T20:25:00.362Z,10.20
2022-12-14T20:27:28.592Z,10.20
2022-12-14T20:30:01.132Z,10.10
2022-12-14T20:35:57.433Z,10.00
2022-12-14T20:38:32.232Z,10.00
2022-12-14T20:41:05.283Z,10.00
2022-12-14T20:43:38.072Z,10.00
2022-12-14T20:46:07.693Z,9.90
2022-12-14T20:48:35.556Z,9.90
2022-12-14T20:51:03.754Z,9.90
2022-12-14T20:53:32.608Z,9.90
2022-12-14T20:56:03.915Z,9.90
2022-12-14T20:58:32.717Z,9.80
2022-12-14T21:01:08.179Z,9.80
2022-12-14T21:03:36.743Z,9.70
2022-12-14T21:06:05.375Z,9.70
2022-12-14T21:08:53.308Z,9.70
2022-12-14T21:11:38.681Z,9.70
2022-12-14T21:14:12.420Z,9.60
2022-12-14T21:16:42.876Z,9.60
2022-12-14T21:19:12.187Z,9.60
2022-12-14T21:21:48.095Z,9.60
2022-12-14T21:24:37.439Z,9.60
2022-12-14T21:27:09.044Z,9.50
2022-12-14T21:29:37.053Z,9.50
2022-12-14T21:32:06.768Z,9.50
2022-12-14T21:34:34.714Z,9.50
2022-12-14T21:37:02.808Z,9.50
2022-12-14T21:39:31.741Z,9.50
2022-12-14T21:42:15.670Z,9.40
2022-12-14T21:44:44.206Z,9.50
2022-12-14T21:47:14.992Z,9.40
2022-12-14T21:49:44.164Z,9.40
2022-12-14T21:52:13.569Z,9.40
2022-12-14T21:54:41.832Z,9.40
2022-12-14T21:57:31.669Z,9.30
2022-12-14T21:59:59.945Z,9.30
2022-12-14T22:02:29.624Z,9.30
2022-12-14T22:04:57.975Z,9.30
2022-12-14T22:07:27.357Z,9.30
2022-12-14T22:09:55.099Z,9.30
2022-12-14T22:12:22.940Z,9.30
2022-12-14T22:14:51.032Z,9.30
2022-12-14T22:17:19.012Z,9.20
2022-12-14T22:19:49.019Z,9.20
2022-12-14T22:22:17.294Z,9.20
2022-12-14T22:24:45.719Z,9.20
2022-12-14T22:27:13.985Z,9.10
2022-12-14T22:29:42.380Z,9.10
2022-12-14T22:32:11.659Z,9.20
2022-12-14T22:34:39.967Z,9.20
2022-12-14T22:37:11.202Z,9.20
2022-12-14T22:39:39.202Z,9.20
2022-12-14T22:42:07.047Z,9.20
2022-12-14T22:44:35.013Z,9.20
2022-12-14T22:47:03.019Z,9.20
2022-12-14T22:49:30.940Z,9.20
2022-12-14T22:51:58.804Z,9.20
2022-12-14T22:54:30.576Z,9.20
2022-12-14T22:56:59.463Z,9.20
2022-12-14T22:59:29.117Z,9.20
2022-12-14T23:01:57.044Z,9.30
2022-12-14T23:04:28.292Z,9.20
2022-12-14T23:06:56.024Z,9.20
2022-12-14T23:09:42.141Z,9.30
2022-12-14T23:12:29.098Z,9.30
2022-12-14T23:15:14.348Z,9.30
2022-12-14T23:17:59.894Z,9.20
2022-12-14T23:20:45.267Z,9.20
2022-12-14T23:23:31.277Z,9.20
2022-12-14T23:26:20.651Z,9.20
2022-12-14T23:29:07.430Z,9.10
2022-12-14T23:31:52.870Z,9.20
2022-12-14T23:34:38.187Z,9.10
2022-12-14T23:37:23.757Z,9.10
2022-12-14T23:40:09.841Z,9.10
2022-12-14T23:42:55.078Z,9.10
2022-12-14T23:45:41.617Z,9.10
2022-12-14T23:48:26.949Z,9.10
2022-12-14T23:51:12.171Z,9.10
2022-12-14T23:53:57.511Z,9.10
2022-12-14T23:56:43.250Z,9.00
2022-12-14T23:59:32.412Z,9.00
